Time;durP1;ratioP1;P1;durP2;ratioP2;P2;SDS_P1;SDS_P2;PMS_P1;PMS_P2;Temp;Humidity;BMP_temperature;BMP_pressure;BME280_temperature;BME280_humidity;BME280_pressure;Samples;Min_cycle;Max_cycle;Signal;HPM_P1;HPM_P2
2022/03/16 00:00:26;;;;;;;15.60;10.40;;;8.10;99.90;;;;;;5094527;28;20210;-65
2022/03/16 00:02:52;;;;;;;21.00;9.53;;;8.10;99.90;;;;;;5095010;28;20163;-66
2022/03/16 00:05:18;;;;;;;19.73;11.40;;;8.10;99.90;;;;;;5094276;28;20162;-64
2022/03/16 00:07:44;;;;;;;17.23;10.30;;;8.10;99.90;;;;;;5094404;28;20162;-66
2022/03/16 00:10:11;;;;;;;19.93;10.77;;;8.10;99.90;;;;;;5093984;28;20159;-66
2022/03/16 00:12:38;;;;;;;22.13;10.57;;;8.10;99.90;;;;;;5094035;28;20184;-67
2022/03/16 00:15:05;;;;;;;21.00;11.80;;;8.00;99.90;;;;;;5094871;28;20170;-66
2022/03/16 00:17:30;;;;;;;16.67;10.50;;;8.00;99.90;;;;;;5094008;28;20173;-65
2022/03/16 00:19:56;;;;;;;19.70;11.60;;;8.00;99.90;;;;;;5093932;28;20201;-65
2022/03/16 00:22:22;;;;;;;18.53;11.43;;;7.90;99.90;;;;;;5094296;28;20177;-66
2022/03/16 00:24:47;;;;;;;16.97;11.07;;;8.00;99.90;;;;;;5094065;28;20485;-65
2022/03/16 00:27:13;;;;;;;18.37;11.40;;;8.00;99.90;;;;;;5093705;28;20169;-66
2022/03/16 00:29:38;;;;;;;22.20;11.73;;;8.00;99.90;;;;;;5093982;28;20172;-65
2022/03/16 00:32:05;;;;;;;17.77;11.77;;;8.00;99.90;;;;;;5095151;28;20563;-66
2022/03/16 00:34:31;;;;;;;23.57;12.47;;;8.00;99.90;;;;;;5096609;28;20675;-65
2022/03/16 00:36:57;;;;;;;22.63;11.80;;;8.10;99.90;;;;;;5093496;28;20177;-67
2022/03/16 00:39:23;;;;;;;20.60;12.50;;;8.00;99.90;;;;;;5093097;28;20293;-65
2022/03/16 00:41:48;;;;;;;18.00;12.33;;;8.00;99.90;;;;;;5075114;28;20190;-66
2022/03/16 00:44:14;;;;;;;19.97;11.23;;;8.00;99.90;;;;;;5093170;28;20165;-66
2022/03/16 00:46:41;;;;;;;24.23;12.10;;;7.80;99.90;;;;;;5093670;28;20167;-65
2022/03/16 00:49:06;;;;;;;16.40;10.67;;;7.90;99.90;;;;;;5093414;28;20209;-65
2022/03/16 00:51:32;;;;;;;20.13;12.07;;;7.90;99.90;;;;;;5093604;28;20198;-64
2022/03/16 00:53:58;;;;;;;22.40;11.80;;;7.90;99.90;;;;;;5093405;28;20218;-66
2022/03/16 00:56:24;;;;;;;21.13;12.97;;;7.90;99.90;;;;;;5093257;28;20166;-65
2022/03/16 00:58:50;;;;;;;17.97;12.07;;;7.80;99.90;;;;;;5093292;28;20197;-65
2022/03/16 01:01:15;;;;;;;18.77;12.33;;;7.90;99.90;;;;;;5093320;28;20173;-66
2022/03/16 01:03:41;;;;;;;21.10;13.20;;;7.80;99.90;;;;;;5093331;28;20245;-64
2022/03/16 01:06:15;;;;;;;23.30;12.07;;;7.70;99.90;;;;;;5093611;28;20159;-66
2022/03/16 01:08:44;;;;;;;23.33;13.60;;;7.80;99.90;;;;;;5093510;28;20218;-65
2022/03/16 01:11:12;;;;;;;19.63;12.30;;;7.80;99.90;;;;;;5093288;28;20271;-66
2022/03/16 01:13:37;;;;;;;22.93;12.63;;;7.90;99.90;;;;;;5093516;28;20260;-66
2022/03/16 01:16:04;;;;;;;20.43;12.33;;;7.80;99.90;;;;;;5093609;28;20167;-65
2022/03/16 01:18:29;;;;;;;23.07;12.10;;;7.80;99.90;;;;;;5092953;28;20624;-65
2022/03/16 01:20:55;;;;;;;22.07;12.40;;;7.80;99.90;;;;;;5093417;28;20193;-65
2022/03/16 01:23:21;;;;;;;21.80;11.93;;;7.80;99.90;;;;;;5093264;28;20200;-66
2022/03/16 01:25:46;;;;;;;20.47;12.27;;;7.80;99.90;;;;;;5093977;28;20245;-64
2022/03/16 01:28:12;;;;;;;16.20;10.50;;;7.80;99.90;;;;;;5093808;28;20199;-66
2022/03/16 01:30:37;;;;;;;17.57;10.53;;;7.90;99.90;;;;;;5095213;28;20265;-66
2022/03/16 01:33:03;;;;;;;20.17;11.57;;;7.80;99.90;;;;;;5096795;28;20165;-66
2022/03/16 01:35:29;;;;;;;17.20;10.50;;;7.70;99.90;;;;;;5075161;28;20201;-68
2022/03/16 01:37:54;;;;;;;15.97;10.77;;;7.70;99.90;;;;;;5093711;28;20273;-66
2022/03/16 01:40:20;;;;;;;18.07;11.33;;;7.70;99.90;;;;;;5096890;28;20224;-67
2022/03/16 01:42:46;;;;;;;19.33;11.50;;;7.70;99.90;;;;;;5079419;28;20195;-65
2022/03/16 01:45:11;;;;;;;22.73;11.13;;;7.70;99.90;;;;;;5076620;28;20647;-67
2022/03/16 01:47:37;;;;;;;18.40;11.23;;;7.70;99.90;;;;;;5078059;28;20159;-66
2022/03/16 01:50:03;;;;;;;16.37;9.60;;;7.70;99.90;;;;;;5076694;28;20231;-65
2022/03/16 01:52:29;;;;;;;23.43;11.10;;;7.70;99.90;;;;;;5076535;28;20239;-65
2022/03/16 01:54:56;;;;;;;25.17;12.53;;;7.80;99.90;;;;;;5076578;28;20179;-66
2022/03/16 01:57:23;;;;;;;15.47;9.97;;;7.70;99.90;;;;;;5078048;28;20172;-66
2022/03/16 01:59:49;;;;;;;19.60;11.73;;;7.60;99.90;;;;;;5078226;28;20210;-66
2022/03/16 02:02:16;;;;;;;19.90;11.03;;;7.60;99.90;;;;;;5076749;28;20171;-66
2022/03/16 02:04:42;;;;;;;20.87;11.30;;;7.60;99.90;;;;;;5076432;28;20171;-67
2022/03/16 02:07:08;;;;;;;18.37;11.20;;;7.60;99.90;;;;;;5076150;28;20173;-66
2022/03/16 02:09:34;;;;;;;17.23;10.73;;;7.60;99.90;;;;;;5076405;28;20185;-65
2022/03/16 02:12:00;;;;;;;18.27;11.27;;;7.70;99.90;;;;;;5076303;28;20202;-65
2022/03/16 02:14:26;;;;;;;18.10;10.07;;;7.70;99.90;;;;;;5076034;28;20558;-67
2022/03/16 02:16:51;;;;;;;21.30;11.37;;;7.50;99.90;;;;;;5076315;28;20167;-66
2022/03/16 02:19:17;;;;;;;20.70;12.03;;;7.50;99.90;;;;;;5076189;28;20207;-65
2022/03/16 02:21:49;;;;;;;22.70;10.93;;;7.50;99.90;;;;;;5076139;28;20312;-66
2022/03/16 02:24:14;;;;;;;19.23;11.20;;;7.40;99.90;;;;;;5075665;28;20162;-66
2022/03/16 02:26:40;;;;;;;20.03;10.87;;;7.50;99.90;;;;;;5075562;28;20193;-65
2022/03/16 02:29:06;;;;;;;17.47;10.53;;;7.50;99.90;;;;;;5076557;28;20153;-65
2022/03/16 02:31:32;;;;;;;20.90;11.23;;;7.40;99.90;;;;;;5075606;28;20611;-66
2022/03/16 02:33:57;;;;;;;15.20;10.10;;;7.40;99.90;;;;;;5076342;28;20171;-66
2022/03/16 02:36:23;;;;;;;17.13;11.90;;;7.40;99.90;;;;;;5075756;28;20181;-66
2022/03/16 02:38:49;;;;;;;21.43;11.33;;;7.50;99.90;;;;;;5075438;28;20263;-67
2022/03/16 02:41:15;;;;;;;17.13;10.87;;;7.50;99.90;;;;;;5093218;28;20224;-65
2022/03/16 02:43:40;;;;;;;18.73;11.17;;;7.50;99.90;;;;;;5095474;28;20207;-66
2022/03/16 02:46:06;;;;;;;18.17;10.87;;;7.50;99.90;;;;;;5096169;28;20208;-66
2022/03/16 02:48:32;;;;;;;18.20;10.73;;;7.50;99.90;;;;;;5095436;28;20614;-65
2022/03/16 02:50:58;;;;;;;16.27;10.20;;;7.50;99.90;;;;;;5095432;28;20169;-66
2022/03/16 02:53:24;;;;;;;18.30;10.57;;;7.60;99.90;;;;;;5095578;28;20506;-66
2022/03/16 02:55:50;;;;;;;17.60;9.97;;;7.50;99.90;;;;;;5095658;28;20158;-66
2022/03/16 02:58:17;;;;;;;16.60;10.00;;;7.50;99.90;;;;;;5096087;28;20507;-65
2022/03/16 03:00:43;;;;;;;13.00;9.07;;;7.50;99.90;;;;;;5095066;28;20688;-66
2022/03/16 03:03:09;;;;;;;19.27;10.83;;;7.50;99.90;;;;;;5095506;28;20175;-66
2022/03/16 03:05:35;;;;;;;19.50;11.57;;;7.40;99.90;;;;;;5095809;28;20225;-65
2022/03/16 03:08:01;;;;;;;20.93;10.77;;;7.40;99.90;;;;;;5096746;28;20262;-65
2022/03/16 03:10:27;;;;;;;15.37;9.97;;;7.40;99.90;;;;;;5098300;28;20614;-64
2022/03/16 03:12:53;;;;;;;19.23;10.00;;;7.40;99.90;;;;;;5100240;28;20165;-68
2022/03/16 03:15:19;;;;;;;19.03;10.13;;;7.30;99.90;;;;;;5099929;28;20185;-66
2022/03/16 03:17:45;;;;;;;16.20;9.97;;;7.30;99.90;;;;;;5101507;28;20524;-64
2022/03/16 03:20:12;;;;;;;20.30;9.97;;;7.40;99.90;;;;;;5101373;28;20205;-66
2022/03/16 03:22:38;;;;;;;15.57;9.93;;;7.30;99.90;;;;;;5099143;28;20170;-65
2022/03/16 03:25:04;;;;;;;17.30;9.73;;;7.30;99.90;;;;;;5101908;28;20165;-64
2022/03/16 03:27:32;;;;;;;19.47;9.03;;;7.40;99.90;;;;;;5097583;28;20186;-65
2022/03/16 03:29:57;;;;;;;15.93;9.67;;;7.40;99.90;;;;;;5077947;28;20179;-65
2022/03/16 03:32:23;;;;;;;19.10;9.70;;;7.30;99.90;;;;;;5111896;28;20572;-65
2022/03/16 03:34:51;;;;;;;15.57;9.87;;;7.30;99.90;;;;;;5095542;28;20568;-64
2022/03/16 03:37:18;;;;;;;16.70;9.47;;;7.30;99.90;;;;;;5096383;28;20581;-65
2022/03/16 03:39:44;;;;;;;14.57;9.03;;;7.20;99.90;;;;;;5096086;28;20237;-66
2022/03/16 03:42:10;;;;;;;21.37;10.40;;;7.20;99.90;;;;;;5095826;28;20214;-65
2022/03/16 03:44:37;;;;;;;21.47;11.00;;;7.30;99.90;;;;;;5097119;28;20211;-66
2022/03/16 03:47:08;;;;;;;17.27;10.50;;;7.20;99.90;;;;;;5097361;28;20191;-65
2022/03/16 03:49:35;;;;;;;16.37;10.00;;;7.20;99.90;;;;;;5097087;28;20186;-65
2022/03/16 03:52:00;;;;;;;16.60;9.97;;;7.20;99.90;;;;;;5097865;28;20185;-65
2022/03/16 03:54:27;;;;;;;17.37;10.60;;;7.20;99.90;;;;;;5098214;28;20493;-65
2022/03/16 03:56:53;;;;;;;17.53;10.73;;;7.20;99.90;;;;;;5099670;28;20166;-67
2022/03/16 03:59:20;;;;;;;14.73;9.00;;;7.10;99.90;;;;;;5099803;28;20197;-66
2022/03/16 04:01:45;;;;;;;16.57;9.53;;;7.20;99.90;;;;;;5099570;28;20165;-65
2022/03/16 04:04:11;;;;;;;19.83;9.47;;;7.20;99.90;;;;;;5098845;28;20234;-65
2022/03/16 04:06:37;;;;;;;13.23;8.60;;;7.20;99.90;;;;;;5078809;28;20210;-67
2022/03/16 04:09:03;;;;;;;18.40;9.53;;;7.30;99.90;;;;;;5097878;28;20158;-67
2022/03/16 04:11:28;;;;;;;17.30;9.60;;;7.20;99.90;;;;;;5098352;28;20201;-65
2022/03/16 04:13:54;;;;;;;16.53;10.17;;;7.30;99.90;;;;;;5099636;28;20163;-66
2022/03/16 04:16:20;;;;;;;20.10;9.97;;;7.30;99.90;;;;;;5099842;28;20194;-66
2022/03/16 04:18:45;;;;;;;20.40;9.57;;;7.20;99.90;;;;;;5077946;28;20216;-67
2022/03/16 04:21:11;;;;;;;16.03;9.83;;;7.20;99.90;;;;;;5094771;28;20515;-64
2022/03/16 04:23:37;;;;;;;19.77;9.30;;;7.20;99.90;;;;;;5094560;28;20168;-65
2022/03/16 04:26:02;;;;;;;16.10;9.20;;;7.20;99.90;;;;;;5095066;28;20562;-65
2022/03/16 04:28:28;;;;;;;16.37;9.33;;;7.30;99.90;;;;;;5094629;28;20552;-65
2022/03/16 04:30:53;;;;;;;18.33;9.73;;;7.30;99.90;;;;;;5094562;28;20164;-66
2022/03/16 04:33:19;;;;;;;22.77;10.67;;;7.30;99.90;;;;;;5094678;28;20206;-65
2022/03/16 04:35:45;;;;;;;18.53;9.97;;;7.20;99.90;;;;;;5094531;28;20536;-65
2022/03/16 04:38:10;;;;;;;14.20;9.07;;;7.20;99.90;;;;;;5093616;28;20170;-66
2022/03/16 04:40:36;;;;;;;19.53;10.07;;;7.20;99.90;;;;;;5094084;28;20324;-66
2022/03/16 04:43:03;;;;;;;22.27;10.30;;;7.10;99.90;;;;;;5093457;28;20247;-65
2022/03/16 04:45:28;;;;;;;22.63;9.67;;;7.20;99.90;;;;;;5095934;28;20158;-66
2022/03/16 04:47:54;;;;;;;16.23;9.13;;;7.20;99.90;;;;;;5096277;28;20160;-64
2022/03/16 04:50:20;;;;;;;13.47;8.30;;;7.20;99.90;;;;;;5094068;28;20174;-66
2022/03/16 04:52:47;;;;;;;17.57;9.40;;;7.20;99.90;;;;;;5093577;28;20184;-65
2022/03/16 04:55:13;;;;;;;15.57;8.67;;;7.20;99.90;;;;;;5093478;28;20148;-66
2022/03/16 04:57:39;;;;;;;17.80;9.23;;;7.10;99.90;;;;;;5094204;28;20207;-66
2022/03/16 05:00:06;;;;;;;18.60;10.30;;;7.10;99.90;;;;;;5093767;28;20226;-66
2022/03/16 05:02:32;;;;;;;19.27;10.77;;;7.10;99.90;;;;;;5093403;28;20182;-66
2022/03/16 05:04:57;;;;;;;16.53;9.40;;;7.10;99.90;;;;;;5093977;28;20215;-66
2022/03/16 05:07:23;;;;;;;18.53;9.90;;;7.10;99.90;;;;;;5094194;28;20168;-65
2022/03/16 05:09:49;;;;;;;19.73;9.83;;;7.20;99.90;;;;;;5093850;28;20231;-65
2022/03/16 05:12:14;;;;;;;27.67;9.93;;;7.10;99.90;;;;;;5093803;28;20174;-65
2022/03/16 05:14:40;;;;;;;19.10;10.83;;;7.20;99.90;;;;;;5076183;28;20292;-65
2022/03/16 05:17:05;;;;;;;18.30;10.10;;;7.20;99.90;;;;;;5093272;28;20232;-65
2022/03/16 05:19:31;;;;;;;14.80;9.03;;;7.20;99.90;;;;;;5093350;28;20202;-66
2022/03/16 05:21:57;;;;;;;15.93;10.07;;;7.20;99.90;;;;;;5093043;28;20162;-65
2022/03/16 05:24:24;;;;;;;16.80;9.63;;;7.20;99.90;;;;;;5097243;28;20177;-65
2022/03/16 05:26:50;;;;;;;20.60;11.07;;;7.30;99.90;;;;;;5097767;28;20172;-65
2022/03/16 05:29:16;;;;;;;17.47;9.70;;;7.20;99.90;;;;;;5097424;28;20674;-64
2022/03/16 05:31:42;;;;;;;21.10;10.30;;;7.20;99.90;;;;;;5097747;28;20241;-66
2022/03/16 05:34:08;;;;;;;19.77;10.13;;;7.20;99.90;;;;;;5079846;28;20206;-65
2022/03/16 05:36:34;;;;;;;21.23;11.83;;;7.20;99.90;;;;;;5098243;28;20179;-66
2022/03/16 05:39:00;;;;;;;22.07;11.70;;;7.20;99.90;;;;;;5097224;28;20212;-65
2022/03/16 05:41:26;;;;;;;20.63;10.97;;;7.20;99.90;;;;;;5098063;28;20228;-65
2022/03/16 05:43:51;;;;;;;19.57;10.60;;;7.20;99.90;;;;;;5097257;28;20175;-65
2022/03/16 05:46:17;;;;;;;19.47;10.87;;;7.20;99.90;;;;;;5097140;28;20165;-65
2022/03/16 05:48:42;;;;;;;15.13;9.93;;;7.20;99.90;;;;;;5097132;28;20168;-65
2022/03/16 05:51:09;;;;;;;22.83;10.27;;;7.30;99.90;;;;;;5097347;28;20161;-66
2022/03/16 05:53:35;;;;;;;16.27;9.97;;;7.20;99.90;;;;;;5096800;28;20334;-67
2022/03/16 05:56:02;;;;;;;20.50;10.57;;;7.30;99.90;;;;;;5097109;28;20643;-64
2022/03/16 05:58:28;;;;;;;23.60;11.00;;;7.30;99.90;;;;;;5097306;28;20574;-64
2022/03/16 06:00:53;;;;;;;18.83;9.57;;;7.30;99.90;;;;;;5079042;28;20196;-66
2022/03/16 06:03:19;;;;;;;15.30;9.87;;;7.30;99.90;;;;;;5096997;28;20169;-65
2022/03/16 06:05:45;;;;;;;20.00;11.43;;;7.40;99.90;;;;;;5097138;28;20198;-64
2022/03/16 06:08:11;;;;;;;17.57;10.37;;;7.40;99.90;;;;;;5097844;28;20215;-64
2022/03/16 06:10:36;;;;;;;19.20;10.80;;;7.40;99.90;;;;;;5098133;28;20186;-66
2022/03/16 06:13:04;;;;;;;20.67;9.80;;;7.40;99.90;;;;;;5099436;28;20169;-66
2022/03/16 06:15:41;;;;;;;17.27;9.37;;;7.50;99.90;;;;;;5096912;28;20610;-65
2022/03/16 06:18:08;;;;;;;18.77;10.63;;;7.50;99.90;;;;;;5097029;28;20228;-65
2022/03/16 06:20:34;;;;;;;17.83;9.80;;;7.50;99.90;;;;;;5078783;28;20205;-64
2022/03/16 06:23:00;;;;;;;21.10;10.43;;;7.40;99.90;;;;;;5096726;28;20259;-65
2022/03/16 06:25:26;;;;;;;19.90;10.47;;;7.50;99.90;;;;;;5096346;28;20194;-64
2022/03/16 06:27:52;;;;;;;18.20;10.30;;;7.60;99.90;;;;;;5062238;28;20557;-64
2022/03/16 06:30:19;;;;;;;17.13;9.90;;;7.50;99.90;;;;;;5096328;28;20170;-64
2022/03/16 06:32:45;;;;;;;18.53;10.57;;;7.40;99.90;;;;;;5096630;28;20472;-65
2022/03/16 06:35:12;;;;;;;17.93;10.17;;;7.50;99.90;;;;;;5095165;28;20158;-65
2022/03/16 06:37:37;;;;;;;16.23;9.40;;;7.50;99.90;;;;;;5098339;28;20190;-65
2022/03/16 06:40:05;;;;;;;19.53;10.20;;;7.60;99.90;;;;;;5096158;28;20244;-66
2022/03/16 06:42:30;;;;;;;17.83;9.17;;;7.50;99.90;;;;;;5096258;28;20184;-66
2022/03/16 06:44:56;;;;;;;17.23;10.53;;;7.60;99.90;;;;;;5078288;28;20263;-64
2022/03/16 06:47:21;;;;;;;17.37;9.93;;;7.60;99.90;;;;;;5096275;28;20174;-66
2022/03/16 06:49:47;;;;;;;22.23;10.23;;;7.60;99.90;;;;;;5096182;28;20205;-65
2022/03/16 06:52:13;;;;;;;20.03;11.47;;;7.60;99.90;;;;;;5096399;28;20621;-66
2022/03/16 06:54:38;;;;;;;23.60;11.37;;;7.60;99.90;;;;;;5095894;28;20161;-65
2022/03/16 06:57:04;;;;;;;21.10;10.97;;;7.70;99.90;;;;;;5095896;28;20208;-65
2022/03/16 06:59:30;;;;;;;18.67;11.13;;;7.80;99.90;;;;;;5096510;28;20216;-64
2022/03/16 07:01:56;;;;;;;25.23;11.93;;;7.90;99.90;;;;;;5096782;28;20166;-65
2022/03/16 07:04:22;;;;;;;24.00;12.83;;;8.00;99.90;;;;;;5096482;28;20310;-65
2022/03/16 07:06:47;;;;;;;19.10;10.57;;;7.90;99.90;;;;;;5078340;28;20226;-64
2022/03/16 07:09:13;;;;;;;16.73;10.57;;;8.10;99.90;;;;;;5096521;28;20587;-66
2022/03/16 07:11:39;;;;;;;16.43;10.03;;;8.10;99.90;;;;;;5093193;28;20188;-64
2022/03/16 07:16:49;;;;;;;18.33;10.03;;;8.10;99.90;;;;;;5101679;28;20653;-65
2022/03/16 07:19:14;;;;;;;19.53;10.87;;;8.20;99.90;;;;;;5096497;28;20187;-65
2022/03/16 07:21:40;;;;;;;21.20;11.20;;;8.20;99.90;;;;;;5096692;28;20167;-65
2022/03/16 07:24:06;;;;;;;16.53;9.77;;;8.20;99.90;;;;;;5095692;28;20555;-65
2022/03/16 07:26:32;;;;;;;19.63;10.17;;;8.30;99.90;;;;;;5095869;28;20171;-65
2022/03/16 07:28:57;;;;;;;16.63;10.87;;;8.40;99.90;;;;;;5095513;28;20171;-67
2022/03/16 07:31:23;;;;;;;16.17;10.00;;;8.50;99.90;;;;;;5095965;28;20574;-65
2022/03/16 07:33:49;;;;;;;23.10;12.03;;;8.40;99.90;;;;;;5095839;28;20177;-65
2022/03/16 07:36:16;;;;;;;17.87;9.80;;;8.50;99.90;;;;;;5098270;28;20189;-64
2022/03/16 07:38:41;;;;;;;15.73;10.13;;;8.50;99.90;;;;;;5095240;28;20178;-65
2022/03/16 07:41:07;;;;;;;25.47;11.00;;;8.60;99.90;;;;;;5095574;28;20237;-64
2022/03/16 07:43:33;;;;;;;18.20;10.23;;;8.60;99.90;;;;;;5094593;28;20616;-66
2022/03/16 07:45:58;;;;;;;18.00;10.57;;;8.80;99.90;;;;;;5094827;28;20167;-64
2022/03/16 07:48:24;;;;;;;17.47;10.07;;;8.70;99.90;;;;;;5077237;28;20266;-64
2022/03/16 07:50:51;;;;;;;18.57;11.80;;;8.80;99.90;;;;;;5094675;28;20170;-65
2022/03/16 07:53:17;;;;;;;21.30;11.40;;;8.70;99.90;;;;;;5076905;28;20198;-64
2022/03/16 07:55:45;;;;;;;20.60;11.10;;;8.70;99.90;;;;;;5077454;28;20222;-66
2022/03/16 07:58:11;;;;;;;18.67;10.23;;;8.90;99.90;;;;;;5095214;28;20169;-64
2022/03/16 08:00:37;;;;;;;18.97;10.43;;;8.80;99.90;;;;;;5094599;28;20289;-65
2022/03/16 08:03:03;;;;;;;21.73;11.57;;;8.80;99.90;;;;;;5094469;28;20166;-63
2022/03/16 08:05:30;;;;;;;17.33;10.80;;;8.70;99.90;;;;;;5094531;28;20609;-64
2022/03/16 08:07:56;;;;;;;19.43;11.70;;;8.80;99.90;;;;;;5094765;28;20168;-64
2022/03/16 08:10:22;;;;;;;22.03;11.87;;;8.90;99.90;;;;;;5094833;28;20216;-65
2022/03/16 08:12:48;;;;;;;17.73;11.20;;;9.00;99.90;;;;;;5094939;28;20163;-64
2022/03/16 08:15:14;;;;;;;19.50;10.87;;;9.20;99.90;;;;;;5094286;28;20163;-64
2022/03/16 08:17:40;;;;;;;19.00;11.87;;;9.10;99.90;;;;;;5076428;28;20258;-64
2022/03/16 08:20:06;;;;;;;17.67;11.90;;;9.30;99.90;;;;;;5094497;28;20203;-64
2022/03/16 08:22:35;;;;;;;18.67;11.10;;;9.30;99.90;;;;;;5094475;28;20611;-64
2022/03/16 08:25:07;;;;;;;20.20;12.17;;;9.30;99.90;;;;;;5093985;28;20591;-64
2022/03/16 08:27:34;;;;;;;18.43;11.50;;;9.40;99.90;;;;;;5094514;28;20173;-64
2022/03/16 08:30:00;;;;;;;18.73;11.43;;;9.40;99.90;;;;;;5094624;28;20229;-64
2022/03/16 08:32:26;;;;;;;19.43;11.40;;;9.60;99.90;;;;;;5094138;28;20614;-65
2022/03/16 08:34:52;;;;;;;17.13;11.30;;;9.30;99.90;;;;;;5094239;28;20213;-65
2022/03/16 08:37:18;;;;;;;22.00;11.77;;;9.50;99.90;;;;;;5094011;28;20198;-64
2022/03/16 08:39:44;;;;;;;23.10;11.53;;;9.30;99.90;;;;;;5093936;28;20249;-65
2022/03/16 08:42:11;;;;;;;21.63;12.17;;;9.30;99.90;;;;;;5077457;28;20179;-66
2022/03/16 08:44:37;;;;;;;24.77;12.50;;;9.40;99.90;;;;;;5078401;28;20606;-64
2022/03/16 08:47:03;;;;;;;22.67;12.17;;;9.50;99.90;;;;;;5078002;28;20204;-65
2022/03/16 08:49:29;;;;;;;19.00;11.63;;;9.20;99.90;;;;;;5079713;28;20324;-64
2022/03/16 08:51:58;;;;;;;20.60;11.83;;;9.30;99.90;;;;;;5096061;28;20163;-65
2022/03/16 08:54:25;;;;;;;20.37;11.97;;;9.40;99.90;;;;;;5093921;28;20163;-65
2022/03/16 08:56:52;;;;;;;20.00;11.20;;;9.50;99.90;;;;;;5093965;28;20184;-65
2022/03/16 08:59:19;;;;;;;20.50;12.33;;;9.70;99.90;;;;;;5110539;28;20650;-64
2022/03/16 09:01:45;;;;;;;20.90;12.40;;;9.90;99.90;;;;;;5079063;28;20175;-65
2022/03/16 09:04:10;;;;;;;18.73;12.07;;;9.70;99.90;;;;;;5093987;28;20728;-64
2022/03/16 09:06:36;;;;;;;23.37;12.43;;;9.90;99.90;;;;;;5093393;28;20185;-65
2022/03/16 09:09:02;;;;;;;23.23;12.93;;;10.30;99.90;;;;;;5093633;28;20197;-64
2022/03/16 09:11:28;;;;;;;23.37;13.03;;;10.70;99.90;;;;;;5075671;28;20224;-67
2022/03/16 09:13:54;;;;;;;24.13;15.13;;;10.30;99.90;;;;;;5093670;28;20522;-64
2022/03/16 09:16:19;;;;;;;19.87;12.87;;;10.50;99.90;;;;;;5075279;28;20235;-64
2022/03/16 09:18:49;;;;;;;26.73;14.57;;;10.30;99.90;;;;;;5093450;28;20176;-65
2022/03/16 09:21:15;;;;;;;41.13;19.73;;;10.70;99.90;;;;;;5093318;28;20223;-64
2022/03/16 09:23:41;;;;;;;24.03;13.33;;;11.00;99.90;;;;;;5093361;28;20628;-66
2022/03/16 09:26:07;;;;;;;26.17;13.37;;;11.20;99.90;;;;;;5093281;28;20166;-65
2022/03/16 09:28:33;;;;;;;26.50;14.83;;;11.30;99.90;;;;;;5075553;28;20595;-65
2022/03/16 09:30:58;;;;;;;25.87;14.47;;;10.90;99.90;;;;;;5093736;28;20155;-64
2022/03/16 09:33:24;;;;;;;49.33;21.63;;;10.80;99.90;;;;;;5109536;28;20174;-65
2022/03/16 09:35:54;;;;;;;18.77;11.67;;;10.80;99.90;;;;;;5095674;28;20186;-64
2022/03/16 09:38:20;;;;;;;51.63;21.63;;;10.60;99.90;;;;;;5096846;28;20186;-65
2022/03/16 09:40:53;;;;;;;34.20;15.97;;;10.70;99.90;;;;;;5096593;28;20574;-64
2022/03/16 09:43:22;;;;;;;28.00;17.77;;;10.50;99.90;;;;;;5097876;28;20201;-66
2022/03/16 09:45:52;;;;;;;20.33;12.93;;;10.70;99.90;;;;;;5076508;28;20261;-64
2022/03/16 09:48:19;;;;;;;22.43;13.77;;;10.50;99.90;;;;;;5093723;28;20597;-64
2022/03/16 09:50:45;;;;;;;24.00;14.13;;;10.30;99.90;;;;;;5093535;28;20175;-63
2022/03/16 09:53:13;;;;;;;20.60;13.33;;;10.40;99.90;;;;;;5092987;28;20154;-65
2022/03/16 09:55:39;;;;;;;20.70;13.13;;;10.50;99.90;;;;;;5093183;28;20155;-65
2022/03/16 09:58:05;;;;;;;21.43;13.93;;;10.40;99.90;;;;;;5093433;28;20170;-65
2022/03/16 10:00:31;;;;;;;21.00;13.37;;;10.40;99.90;;;;;;5093232;28;20253;-64
2022/03/16 10:03:05;;;;;;;29.87;16.77;;;10.60;99.90;;;;;;5093438;28;20159;-64
2022/03/16 10:05:31;;;;;;;22.53;13.97;;;10.60;99.90;;;;;;5093325;28;20617;-64
2022/03/16 10:08:02;;;;;;;23.87;14.37;;;10.60;99.90;;;;;;5093254;28;20178;-65
2022/03/16 10:13:18;;;;;;;27.30;15.73;;;11.10;99.90;;;;;;5097067;28;20179;-64
2022/03/16 10:15:44;;;;;;;23.03;14.23;;;11.20;99.90;;;;;;5096454;28;20163;-64
2022/03/16 10:18:14;;;;;;;21.33;13.03;;;11.20;99.90;;;;;;5097942;28;20182;-63
2022/03/16 10:20:40;;;;;;;21.77;12.47;;;11.50;99.90;;;;;;5096692;28;20190;-64
2022/03/16 10:23:09;;;;;;;23.47;13.03;;;11.70;99.90;;;;;;5096995;28;20254;-64
2022/03/16 10:25:45;;;;;;;20.53;12.93;;;11.80;99.90;;;;;;5100251;28;20167;-65
2022/03/16 10:28:23;;;;;;;18.33;12.50;;;11.90;99.90;;;;;;5078854;28;20175;-65
2022/03/16 10:30:53;;;;;;;21.73;13.83;;;12.30;99.90;;;;;;5078840;28;20181;-65
2022/03/16 10:33:20;;;;;;;22.30;12.10;;;12.20;99.90;;;;;;5096067;28;20486;-64
2022/03/16 10:36:08;;;;;;;20.77;12.30;;;12.30;99.90;;;;;;5096411;28;20158;-64
2022/03/16 10:38:39;;;;;;;18.43;12.07;;;12.20;99.90;;;;;;5096102;28;20163;-64
2022/03/16 10:46:34;;;;;;;18.53;12.03;;;12.00;99.90;;;;;;5096042;28;20287;-64
2022/03/16 10:46:52;;;;;;;21.00;13.57;;;11.80;99.90;;;;;;5096560;28;20189;-65
2022/03/16 10:49:20;;;;;;;22.07;13.60;;;11.80;99.90;;;;;;5097008;28;20190;-64
2022/03/16 10:51:59;;;;;;;18.90;13.50;;;11.60;99.90;;;;;;5065657;28;20581;-64
2022/03/16 10:54:26;;;;;;;23.27;13.80;;;11.40;99.90;;;;;;5083137;28;20159;-64
2022/03/16 10:56:53;;;;;;;19.80;13.57;;;11.40;99.90;;;;;;5083169;28;20255;-64
2022/03/16 10:59:20;;;;;;;21.73;13.90;;;11.60;99.90;;;;;;5081739;28;20206;-65
2022/03/16 11:01:48;;;;;;;20.83;12.97;;;12.10;99.90;;;;;;5061925;28;20175;-65
2022/03/16 11:04:14;;;;;;;19.37;12.63;;;12.30;99.90;;;;;;5079662;28;20175;-65
2022/03/16 11:06:41;;;;;;;17.10;11.50;;;12.30;99.90;;;;;;5078708;28;20228;-64
2022/03/16 11:09:10;;;;;;;17.83;11.87;;;12.00;99.90;;;;;;5078043;28;20621;-64
2022/03/16 11:14:22;;;;;;;13.67;9.70;;;12.30;99.90;;;;;;5078304;28;20178;-64
2022/03/16 11:16:49;;;;;;;19.93;11.27;;;12.80;99.90;;;;;;5079330;28;20199;-65
2022/03/16 11:19:17;;;;;;;19.73;12.30;;;12.80;99.90;;;;;;5079989;28;20207;-64
2022/03/16 11:22:08;;;;;;;17.27;10.77;;;12.80;99.90;;;;;;5079177;28;20167;-64
2022/03/16 11:24:37;;;;;;;17.53;10.33;;;12.80;99.90;;;;;;5076779;28;20645;-63
2022/03/16 11:27:49;;;;;;;20.10;11.07;;;12.80;99.90;;;;;;5074853;28;20167;-65
2022/03/16 11:30:27;;;;;;;13.63;9.27;;;12.50;99.90;;;;;;5057802;28;20197;-65
2022/03/16 11:32:58;;;;;;;15.80;8.97;;;12.50;99.90;;;;;;5074637;28;20166;-64
2022/03/16 11:35:30;;;;;;;25.87;12.43;;;12.50;99.90;;;;;;5056845;28;20179;-65
2022/03/16 11:38:00;;;;;;;17.47;10.73;;;12.20;99.90;;;;;;5091177;28;20209;-65
2022/03/16 11:40:26;;;;;;;16.60;8.60;;;12.30;99.90;;;;;;5074422;28;20231;-64
2022/03/16 11:43:04;;;;;;;16.77;10.00;;;12.30;99.90;;;;;;5074814;28;20171;-64
2022/03/16 11:45:38;;;;;;;18.03;10.53;;;12.50;99.90;;;;;;5074387;28;20163;-64
2022/03/16 11:48:31;;;;;;;14.17;9.13;;;12.70;99.90;;;;;;5075612;28;20182;-64
2022/03/16 11:51:08;;;;;;;17.00;9.70;;;12.90;99.90;;;;;;5077408;28;20273;-64
2022/03/16 11:53:46;;;;;;;12.87;8.70;;;13.10;99.90;;;;;;5074946;28;20242;-64
2022/03/16 11:56:36;;;;;;;14.80;9.60;;;13.10;99.90;;;;;;5074639;28;20240;-64
2022/03/16 11:59:23;;;;;;;17.87;11.27;;;13.00;99.90;;;;;;5073945;28;20203;-64
2022/03/16 12:01:52;;;;;;;12.03;8.43;;;12.90;99.90;;;;;;5061098;28;20582;-65
2022/03/16 12:04:31;;;;;;;10.90;7.77;;;13.20;99.90;;;;;;5089635;28;20175;-64
2022/03/16 12:07:04;;;;;;;9.70;7.07;;;13.40;99.90;;;;;;5056108;28;20206;-65
2022/03/16 12:09:46;;;;;;;10.57;8.00;;;13.20;99.90;;;;;;5073754;28;20166;-66
2022/03/16 12:15:19;;;;;;;9.80;6.87;;;13.30;99.90;;;;;;5073943;28;20159;-64
2022/03/16 12:17:56;;;;;;;12.37;7.70;;;13.40;99.90;;;;;;5057007;28;20278;-65
2022/03/16 12:20:27;;;;;;;11.97;7.73;;;13.60;99.90;;;;;;5074091;28;20622;-66
2022/03/16 12:23:00;;;;;;;10.17;6.63;;;13.50;99.90;;;;;;5074310;28;20167;-65
2022/03/16 12:25:29;;;;;;;11.33;7.87;;;13.40;99.90;;;;;;5073807;28;20159;-65
2022/03/16 12:30:51;;;;;;;10.77;6.90;;;13.20;99.90;;;;;;5074299;28;20202;-64
2022/03/16 12:33:20;;;;;;;10.47;6.53;;;13.10;99.90;;;;;;5073162;28;20151;-67
2022/03/16 12:35:54;;;;;;;8.53;7.00;;;13.30;99.90;;;;;;5074639;28;20171;-65
2022/03/16 12:38:22;;;;;;;10.57;6.00;;;13.20;99.90;;;;;;5074627;28;20514;-65
2022/03/16 12:43:33;;;;;;;10.10;6.90;;;13.20;99.90;;;;;;5073909;28;20202;-64
2022/03/16 12:46:37;;;;;;;11.10;6.87;;;13.60;99.90;;;;;;5055574;28;20175;-63
2022/03/16 12:49:09;;;;;;;11.30;7.57;;;13.80;99.90;;;;;;5074033;28;20167;-64
2022/03/16 12:51:53;;;;;;;13.13;8.50;;;13.50;99.90;;;;;;5074380;28;20209;-65
2022/03/16 12:57:59;;;;;;;11.60;7.97;;;13.00;99.90;;;;;;5074813;28;20159;-64
2022/03/16 13:00:32;;;;;;;11.57;7.97;;;12.90;99.90;;;;;;5074005;28;20531;-65
2022/03/16 13:03:17;;;;;;;10.07;7.57;;;13.00;99.90;;;;;;5074206;28;20272;-64